createdAt,value
2018-08-13T00:01:15.575Z,21.90
2018-08-13T00:03:43.754Z,21.80
2018-08-13T00:06:12.475Z,21.80
2018-08-13T00:08:40.688Z,21.70
2018-08-13T00:11:08.908Z,21.70
2018-08-13T00:13:37.103Z,21.80
2018-08-13T00:16:05.670Z,21.80
2018-08-13T00:18:33.850Z,21.70
2018-08-13T00:21:02.030Z,21.60
2018-08-13T00:23:30.255Z,21.60
2018-08-13T00:25:58.418Z,21.50
2018-08-13T00:28:26.590Z,21.40
2018-08-13T00:30:54.758Z,21.40
2018-08-13T00:33:23.191Z,21.30
2018-08-13T00:35:51.358Z,21.30
2018-08-13T00:38:19.531Z,21.30
2018-08-13T00:40:47.710Z,21.30
2018-08-13T00:43:15.879Z,21.20
2018-08-13T00:45:44.082Z,21.10
2018-08-13T00:48:12.302Z,21.20
2018-08-13T00:50:40.510Z,21.10
2018-08-13T00:53:08.695Z,21.10
2018-08-13T00:55:37.122Z,21.00
2018-08-13T00:58:05.666Z,21.00
2018-08-13T01:00:33.842Z,20.90
2018-08-13T01:03:02.017Z,20.90
2018-08-13T01:05:30.518Z,20.80
2018-08-13T01:07:58.701Z,20.80
2018-08-13T01:10:26.858Z,20.80
2018-08-13T01:12:55.031Z,20.90
2018-08-13T01:15:23.503Z,20.90
2018-08-13T01:17:51.683Z,20.80
2018-08-13T01:20:20.934Z,20.80
2018-08-13T01:22:49.118Z,20.80
2018-08-13T01:25:18.491Z,20.70
2018-08-13T01:27:46.803Z,20.70
2018-08-13T01:30:16.555Z,20.70
2018-08-13T01:32:44.725Z,20.60
2018-08-13T01:35:12.890Z,20.60
2018-08-13T01:37:41.058Z,20.60
2018-08-13T01:40:10.471Z,20.60
2018-08-13T01:42:38.748Z,20.60
2018-08-13T01:45:08.558Z,20.50
2018-08-13T01:47:36.926Z,20.50
2018-08-13T01:50:07.074Z,20.40
2018-08-13T01:52:35.291Z,20.40
2018-08-13T01:55:03.482Z,20.40
2018-08-13T01:57:31.649Z,20.30
2018-08-13T01:59:59.869Z,20.30
2018-08-13T02:02:28.088Z,20.30
2018-08-13T02:04:56.283Z,20.30
2018-08-13T02:07:24.458Z,20.20
2018-08-13T02:09:52.647Z,20.20
2018-08-13T02:12:20.822Z,20.20
2018-08-13T02:14:48.996Z,20.20
2018-08-13T02:17:17.162Z,20.20
2018-08-13T02:19:45.338Z,20.20
2018-08-13T02:22:13.582Z,20.20
2018-08-13T02:24:41.763Z,20.20
2018-08-13T02:27:09.937Z,20.20
2018-08-13T02:29:38.102Z,20.20
2018-08-13T02:32:06.286Z,20.40
2018-08-13T02:34:34.466Z,20.40
2018-08-13T02:37:02.755Z,20.50
2018-08-13T02:39:30.955Z,20.50
2018-08-13T02:41:59.197Z,20.50
2018-08-13T02:44:27.388Z,20.40
2018-08-13T02:46:55.576Z,20.30
2018-08-13T02:49:23.738Z,20.20
2018-08-13T02:51:51.918Z,20.10
2018-08-13T02:54:20.088Z,20.10
2018-08-13T02:56:48.251Z,20.00
2018-08-13T02:59:16.422Z,20.00
2018-08-13T03:01:44.618Z,19.90
2018-08-13T03:04:12.787Z,20.00
2018-08-13T03:06:40.973Z,19.90
2018-08-13T03:09:10.719Z,19.90
2018-08-13T03:11:38.891Z,19.90
2018-08-13T03:14:07.082Z,19.90
2018-08-13T03:16:35.292Z,19.90
2018-08-13T03:19:03.517Z,19.80
2018-08-13T03:21:31.703Z,19.80
2018-08-13T03:23:59.903Z,19.80
2018-08-13T03:26:28.084Z,19.70
2018-08-13T03:28:56.251Z,19.70
2018-08-13T03:31:24.492Z,19.70
2018-08-13T03:33:52.698Z,19.60
2018-08-13T03:36:20.874Z,19.60
2018-08-13T03:38:49.039Z,19.50
2018-08-13T03:41:17.211Z,19.50
2018-08-13T03:43:45.383Z,19.40
2018-08-13T03:46:13.570Z,19.40
2018-08-13T03:48:41.738Z,19.40
2018-08-13T03:51:09.906Z,19.40
2018-08-13T03:53:38.090Z,19.40
2018-08-13T03:56:06.952Z,19.40
2018-08-13T03:58:35.150Z,19.40
2018-08-13T04:01:03.374Z,19.40
2018-08-13T04:03:32.143Z,19.30
2018-08-13T04:06:00.317Z,19.30
2018-08-13T04:08:28.487Z,19.20
2018-08-13T04:10:56.670Z,19.30
2018-08-13T04:13:25.150Z,19.30
2018-08-13T04:15:53.330Z,19.40
2018-08-13T04:18:21.498Z,19.40
2018-08-13T04:20:49.666Z,19.40
2018-08-13T04:23:17.835Z,19.30
2018-08-13T04:25:46.026Z,19.30
2018-08-13T04:28:14.198Z,19.30
2018-08-13T04:30:42.378Z,19.30
2018-08-13T04:33:10.558Z,19.30
2018-08-13T04:35:38.742Z,19.30
2018-08-13T04:38:06.965Z,19.40
2018-08-13T04:40:35.151Z,19.40
2018-08-13T04:43:03.390Z,19.50
2018-08-13T04:45:31.623Z,19.50
2018-08-13T04:47:59.833Z,19.60
2018-08-13T04:50:27.994Z,19.60
2018-08-13T04:52:56.166Z,19.60
2018-08-13T04:55:24.326Z,19.70
2018-08-13T04:57:52.498Z,19.70
2018-08-13T05:00:20.689Z,19.70
2018-08-13T05:02:48.954Z,19.80
2018-08-13T05:05:17.123Z,19.90
2018-08-13T05:07:45.561Z,20.00
2018-08-13T05:10:13.721Z,20.00
2018-08-13T05:12:42.329Z,20.20
2018-08-13T05:15:11.323Z,20.20
2018-08-13T05:17:39.559Z,20.30
2018-08-13T05:20:08.897Z,20.40
2018-08-13T05:22:37.107Z,20.50
2018-08-13T05:25:06.458Z,20.50
2018-08-13T05:27:34.851Z,20.60
2018-08-13T05:30:03.126Z,20.60
2018-08-13T05:32:31.267Z,20.60
2018-08-13T05:35:00.318Z,20.60
2018-08-13T05:37:28.497Z,20.70
2018-08-13T05:39:56.678Z,20.80
2018-08-13T05:42:24.862Z,21.00
2018-08-13T05:44:53.038Z,21.00
2018-08-13T05:47:21.222Z,21.10
2018-08-13T05:49:49.420Z,21.20
2018-08-13T05:52:17.926Z,21.40
2018-08-13T05:54:46.141Z,21.50
2018-08-13T05:57:14.339Z,21.50
2018-08-13T05:59:42.531Z,21.70
2018-08-13T06:02:10.710Z,21.70
2018-08-13T06:04:39.272Z,21.80
2018-08-13T06:07:07.774Z,21.90
2018-08-13T06:09:35.942Z,22.10
2018-08-13T06:12:04.106Z,22.10
2018-08-13T06:14:32.278Z,22.20
2018-08-13T06:17:00.476Z,22.40
2018-08-13T06:19:28.692Z,22.50
2018-08-13T06:21:56.882Z,22.50
2018-08-13T06:24:25.142Z,22.60
2018-08-13T06:26:53.247Z,22.70
2018-08-13T06:29:21.622Z,22.70
2018-08-13T06:31:49.798Z,22.80
2018-08-13T06:34:18.024Z,23.00
2018-08-13T06:36:46.240Z,23.10
2018-08-13T06:39:14.491Z,23.20
2018-08-13T06:41:42.798Z,23.30
2018-08-13T06:44:11.261Z,23.50
2018-08-13T06:46:39.447Z,23.50
2018-08-13T06:49:07.630Z,23.60
2018-08-13T06:51:35.794Z,23.60
2018-08-13T06:54:04.355Z,23.70
2018-08-13T06:56:32.543Z,23.80
2018-08-13T06:59:00.735Z,23.90
2018-08-13T07:01:28.918Z,24.00
2018-08-13T07:03:57.158Z,24.10
2018-08-13T07:06:25.354Z,24.20
2018-08-13T07:08:53.530Z,24.30
2018-08-13T07:11:21.712Z,24.30
2018-08-13T07:13:49.928Z,24.50
2018-08-13T07:16:18.182Z,24.50
2018-08-13T07:18:46.424Z,24.70
2018-08-13T07:21:14.642Z,24.90
2018-08-13T07:23:43.178Z,25.00
2018-08-13T07:26:11.437Z,25.10
2018-08-13T07:28:39.606Z,25.10
2018-08-13T07:31:08.210Z,25.30
2018-08-13T07:33:36.423Z,25.30
2018-08-13T07:36:04.893Z,25.30
2018-08-13T07:38:33.402Z,25.40
2018-08-13T07:41:01.610Z,25.40
2018-08-13T07:43:29.790Z,25.60
2018-08-13T07:45:58.020Z,25.60
2018-08-13T07:48:26.456Z,25.80
2018-08-13T07:50:54.665Z,25.90
2018-08-13T07:53:22.888Z,26.00
2018-08-13T07:55:51.100Z,26.00
2018-08-13T07:58:19.293Z,26.10
2018-08-13T08:00:47.466Z,26.20
2018-08-13T08:03:15.678Z,26.40
2018-08-13T08:05:43.854Z,26.40
2018-08-13T08:08:12.062Z,26.40
2018-08-13T08:10:40.242Z,26.50
2018-08-13T08:13:08.406Z,26.70
2018-08-13T08:15:36.585Z,26.70
2018-08-13T08:18:04.990Z,26.60
2018-08-13T08:20:33.447Z,26.80
2018-08-13T08:23:01.674Z,26.80
2018-08-13T08:25:29.862Z,26.80
2018-08-13T08:27:58.047Z,26.80
2018-08-13T08:30:26.236Z,26.90
2018-08-13T08:32:54.443Z,27.00
2018-08-13T08:35:22.634Z,27.20
2018-08-13T08:37:50.816Z,27.30
2018-08-13T08:40:20.313Z,27.50
2018-08-13T08:42:49.030Z,27.70
2018-08-13T08:45:25.630Z,27.70
2018-08-13T08:47:54.941Z,27.80
2018-08-13T08:50:23.710Z,27.90
2018-08-13T08:52:51.921Z,27.80
2018-08-13T08:55:20.630Z,27.80
2018-08-13T08:57:49.894Z,28.00
2018-08-13T09:00:21.106Z,28.20
2018-08-13T09:02:49.274Z,28.40
2018-08-13T09:05:17.515Z,28.50
2018-08-13T09:07:46.185Z,28.40
2018-08-13T09:10:14.407Z,28.40
2018-08-13T09:12:42.603Z,28.30
2018-08-13T09:15:12.851Z,28.40
2018-08-13T09:17:52.410Z,28.60
2018-08-13T09:20:32.455Z,28.60
2018-08-13T09:23:12.308Z,28.50
2018-08-13T09:25:52.018Z,28.50
2018-08-13T09:28:31.526Z,28.50
2018-08-13T09:31:11.221Z,28.50
2018-08-13T09:33:50.836Z,28.60
2018-08-13T09:36:19.015Z,28.60
2018-08-13T09:38:47.198Z,28.80
2018-08-13T09:41:15.507Z,28.70
2018-08-13T09:43:43.690Z,28.90
2018-08-13T09:46:11.899Z,29.00
2018-08-13T09:48:40.070Z,29.20
2018-08-13T09:51:08.254Z,29.30
2018-08-13T09:53:36.419Z,29.50
2018-08-13T09:56:04.614Z,29.50
2018-08-13T09:58:32.914Z,29.60
2018-08-13T10:01:08.721Z,29.60
2018-08-13T10:03:36.916Z,29.80
2018-08-13T10:06:05.165Z,29.80
2018-08-13T10:08:33.364Z,30.00
2018-08-13T10:11:01.566Z,30.10
2018-08-13T10:13:29.894Z,29.90
2018-08-13T10:15:58.071Z,30.10
2018-08-13T10:18:26.255Z,30.30
2018-08-13T10:20:54.688Z,30.30
2018-08-13T10:23:23.391Z,30.10
2018-08-13T10:25:51.570Z,29.90
2018-08-13T10:28:19.767Z,30.10
2018-08-13T10:30:47.929Z,30.40
2018-08-13T10:33:16.150Z,30.40
2018-08-13T10:35:44.323Z,30.70
2018-08-13T10:38:12.506Z,30.80
2018-08-13T10:40:40.954Z,30.90
2018-08-13T10:43:10.191Z,30.70
2018-08-13T10:45:38.414Z,30.70
2018-08-13T10:48:06.655Z,30.60
2018-08-13T10:50:35.165Z,30.40
2018-08-13T10:53:03.351Z,30.50
2018-08-13T10:55:31.523Z,30.60
2018-08-13T10:57:59.724Z,30.80
2018-08-13T11:00:27.890Z,30.70
2018-08-13T11:02:56.115Z,30.80
2018-08-13T11:05:24.279Z,30.50
2018-08-13T11:07:52.462Z,30.70
2018-08-13T11:10:20.743Z,30.70
2018-08-13T11:12:48.862Z,30.90
2018-08-13T11:15:18.720Z,31.10
2018-08-13T11:17:46.886Z,31.30
2018-08-13T11:20:15.370Z,31.30
2018-08-13T11:22:43.955Z,31.30
2018-08-13T11:25:13.843Z,31.20
2018-08-13T11:27:42.232Z,31.30
2018-08-13T11:30:13.778Z,31.30
2018-08-13T11:32:41.956Z,31.50
2018-08-13T11:35:10.138Z,31.60
2018-08-13T11:37:38.354Z,31.70
2018-08-13T11:40:10.842Z,31.80
2018-08-13T11:42:40.218Z,31.90
2018-08-13T11:45:09.390Z,32.10
2018-08-13T11:47:38.258Z,32.30
2018-08-13T11:50:11.906Z,32.30
2018-08-13T11:52:40.083Z,32.40
2018-08-13T11:55:08.426Z,32.50
2018-08-13T11:57:36.640Z,32.50
2018-08-13T12:00:07.651Z,32.40
2018-08-13T12:02:36.011Z,32.60
2018-08-13T12:05:05.390Z,32.20
2018-08-13T12:07:33.600Z,31.90
2018-08-13T12:10:01.789Z,31.80
2018-08-13T12:12:30.028Z,31.90
2018-08-13T12:14:58.199Z,32.10
2018-08-13T12:17:26.479Z,32.10
2018-08-13T12:19:54.657Z,32.40
2018-08-13T12:22:22.854Z,32.70
2018-08-13T12:24:51.031Z,32.90
2018-08-13T12:27:19.303Z,32.70
2018-08-13T12:29:47.494Z,32.80
2018-08-13T12:32:15.890Z,32.70
2018-08-13T12:34:44.201Z,32.90
2018-08-13T12:37:12.432Z,32.90
2018-08-13T12:39:40.700Z,32.90
2018-08-13T12:42:09.843Z,32.70
2018-08-13T12:44:38.124Z,32.50
2018-08-13T12:47:07.098Z,32.40
2018-08-13T12:49:35.287Z,32.10
2018-08-13T12:52:03.492Z,32.20
2018-08-13T12:54:31.672Z,32.30
2018-08-13T12:56:59.910Z,32.40
2018-08-13T12:59:28.059Z,32.40
2018-08-13T13:01:56.274Z,32.50
2018-08-13T13:04:24.786Z,32.60
2018-08-13T13:06:53.007Z,32.60
2018-08-13T13:09:21.191Z,32.40
2018-08-13T13:11:49.383Z,32.20
2018-08-13T13:14:17.589Z,32.00
2018-08-13T13:16:45.817Z,31.80
2018-08-13T13:19:14.020Z,31.70
2018-08-13T13:21:42.263Z,31.60
2018-08-13T13:24:10.434Z,31.30
2018-08-13T13:26:38.607Z,31.20
2018-08-13T13:29:06.818Z,31.00
2018-08-13T13:31:35.102Z,30.90
2018-08-13T13:34:03.274Z,30.80
2018-08-13T13:36:31.482Z,30.70
2018-08-13T13:38:59.663Z,30.60
2018-08-13T13:41:27.863Z,30.50
2018-08-13T13:43:56.046Z,30.40
2018-08-13T13:46:24.282Z,30.40
2018-08-13T13:48:52.647Z,30.30
2018-08-13T13:51:21.166Z,30.10
2018-08-13T13:53:49.336Z,29.70
2018-08-13T13:56:17.519Z,29.50
2018-08-13T13:58:45.740Z,29.30
2018-08-13T14:01:13.944Z,29.20
2018-08-13T14:03:42.159Z,28.90
2018-08-13T14:06:10.518Z,28.60
2018-08-13T14:08:38.689Z,28.50
2018-08-13T14:11:06.862Z,28.40
2018-08-13T14:13:36.014Z,28.40
2018-08-13T14:16:04.266Z,28.10
2018-08-13T14:18:32.485Z,27.80
2018-08-13T14:21:00.805Z,27.60
2018-08-13T14:23:29.006Z,27.50
2018-08-13T14:25:57.410Z,26.90
2018-08-13T14:28:25.618Z,26.60
2018-08-13T14:30:53.802Z,26.20
2018-08-13T14:33:21.975Z,26.00
2018-08-13T14:35:50.170Z,25.40
2018-08-13T14:38:18.374Z,25.00
2018-08-13T14:40:46.601Z,23.70
2018-08-13T14:43:14.980Z,22.80
2018-08-13T14:45:43.211Z,22.00
2018-08-13T14:48:11.636Z,21.50
2018-08-13T14:50:40.015Z,21.60
2018-08-13T14:53:08.207Z,21.80
2018-08-13T14:55:36.374Z,21.90
2018-08-13T14:58:04.666Z,22.00
2018-08-13T15:00:38.074Z,22.10
2018-08-13T15:03:10.412Z,22.10
2018-08-13T15:05:39.130Z,22.10
2018-08-13T15:08:07.301Z,22.00
2018-08-13T15:10:35.562Z,22.00
2018-08-13T15:13:03.973Z,21.90
2018-08-13T15:15:32.040Z,21.80
2018-08-13T15:18:00.256Z,21.60
2018-08-13T15:20:30.416Z,21.60
2018-08-13T15:22:58.607Z,21.60
2018-08-13T15:25:27.171Z,21.40
2018-08-13T15:27:56.151Z,21.40
2018-08-13T15:30:25.679Z,21.40
2018-08-13T15:32:54.333Z,21.50
2018-08-13T15:35:23.164Z,21.60
2018-08-13T15:37:51.603Z,21.60
2018-08-13T15:40:20.306Z,21.50
2018-08-13T15:42:48.535Z,21.50
2018-08-13T15:45:18.774Z,21.60
2018-08-13T15:47:47.633Z,21.70
2018-08-13T15:50:16.862Z,21.70
2018-08-13T15:52:45.526Z,21.70
2018-08-13T15:55:14.183Z,21.70
2018-08-13T15:57:43.022Z,21.60
2018-08-13T16:00:15.023Z,21.60
2018-08-13T16:02:43.497Z,21.70
2018-08-13T16:05:12.156Z,21.70
2018-08-13T16:07:40.420Z,21.80
2018-08-13T16:10:11.180Z,21.70
2018-08-13T16:12:39.449Z,21.80
2018-08-13T16:15:08.435Z,21.70
2018-08-13T16:17:37.206Z,21.70
2018-08-13T16:20:07.618Z,21.70
2018-08-13T16:22:35.817Z,21.80
2018-08-13T16:25:04.467Z,21.80
2018-08-13T16:27:32.707Z,21.80
2018-08-13T16:30:00.909Z,21.80
2018-08-13T16:32:29.110Z,21.70
2018-08-13T16:34:57.348Z,21.70
2018-08-13T16:37:26.373Z,21.70
2018-08-13T16:39:54.696Z,21.80
2018-08-13T16:42:22.866Z,21.70
2018-08-13T16:44:51.319Z,21.70
2018-08-13T16:47:19.527Z,21.70
2018-08-13T16:49:47.760Z,21.70
2018-08-13T16:52:15.934Z,21.70
2018-08-13T16:54:44.134Z,21.60
2018-08-13T16:57:12.482Z,21.50
2018-08-13T16:59:40.680Z,21.60
2018-08-13T17:02:08.857Z,21.60
2018-08-13T17:04:37.034Z,21.60
2018-08-13T17:07:05.385Z,21.60
2018-08-13T17:09:33.558Z,21.60
2018-08-13T17:12:01.734Z,21.50
2018-08-13T17:14:30.395Z,21.60
2018-08-13T17:16:58.422Z,21.60
2018-08-13T17:19:26.697Z,21.70
2018-08-13T17:21:54.870Z,21.70
2018-08-13T17:24:23.054Z,21.80
2018-08-13T17:26:51.255Z,21.80
2018-08-13T17:29:19.475Z,21.80
2018-08-13T17:31:47.692Z,21.80
2018-08-13T17:34:15.906Z,21.80
2018-08-13T17:36:44.066Z,21.80
2018-08-13T17:39:14.175Z,21.80
2018-08-13T17:41:42.296Z,21.80
2018-08-13T17:44:10.522Z,21.80
2018-08-13T17:46:39.398Z,21.80
2018-08-13T17:49:08.007Z,21.90
2018-08-13T17:51:36.471Z,21.80
2018-08-13T17:54:04.645Z,21.80
2018-08-13T17:56:32.838Z,21.70
2018-08-13T17:59:01.011Z,21.80
2018-08-13T18:01:29.181Z,21.70
2018-08-13T18:03:57.403Z,21.80
2018-08-13T18:06:25.627Z,21.80
2018-08-13T18:08:54.113Z,21.70
2018-08-13T18:11:22.299Z,21.70
2018-08-13T18:13:50.536Z,21.70
2018-08-13T18:16:18.743Z,21.60
2018-08-13T18:18:46.931Z,21.60
2018-08-13T18:21:15.208Z,21.60
2018-08-13T18:23:43.658Z,21.60
2018-08-13T18:26:11.835Z,21.60
2018-08-13T18:28:40.044Z,21.60
2018-08-13T18:31:08.646Z,21.50
2018-08-13T18:33:36.933Z,21.50
2018-08-13T18:36:05.126Z,21.40
2018-08-13T18:38:33.295Z,21.50
2018-08-13T18:41:01.481Z,21.30
2018-08-13T18:43:29.685Z,21.40
2018-08-13T18:45:58.047Z,21.30
2018-08-13T18:48:26.218Z,21.30
2018-08-13T18:50:54.446Z,21.20
2018-08-13T18:53:22.676Z,21.10
2018-08-13T18:55:50.883Z,21.10
2018-08-13T18:58:19.058Z,21.00
2018-08-13T19:00:51.124Z,20.90
2018-08-13T19:03:19.390Z,20.90
2018-08-13T19:05:47.582Z,20.80
2018-08-13T19:08:15.750Z,20.80
2018-08-13T19:10:43.939Z,20.80
2018-08-13T19:13:12.122Z,20.80
2018-08-13T19:15:40.294Z,20.80
2018-08-13T19:18:08.502Z,20.80
2018-08-13T19:20:36.686Z,20.80
2018-08-13T19:23:05.079Z,20.80
2018-08-13T19:25:33.302Z,20.80
2018-08-13T19:28:01.483Z,20.80
2018-08-13T19:30:29.967Z,20.80
2018-08-13T19:32:58.159Z,20.80
2018-08-13T19:35:26.430Z,20.70
2018-08-13T19:37:54.608Z,20.70
2018-08-13T19:40:24.372Z,20.70
2018-08-13T19:42:52.730Z,20.70
2018-08-13T19:45:21.634Z,20.70
2018-08-13T19:47:50.494Z,20.70
2018-08-13T19:50:18.679Z,20.70
2018-08-13T19:52:48.003Z,20.70
2018-08-13T19:55:16.678Z,20.70
2018-08-13T19:57:44.867Z,20.70
2018-08-13T20:00:16.501Z,20.70
2018-08-13T20:02:44.871Z,20.70
2018-08-13T20:05:13.904Z,20.70
2018-08-13T20:07:42.071Z,20.70
2018-08-13T20:10:12.362Z,20.70
2018-08-13T20:12:40.743Z,20.70
2018-08-13T20:15:09.446Z,20.70
2018-08-13T20:17:37.905Z,20.60
2018-08-13T20:20:09.604Z,20.60
2018-08-13T20:22:37.770Z,20.60
2018-08-13T20:25:06.500Z,20.60
2018-08-13T20:27:34.994Z,20.60
2018-08-13T20:30:03.186Z,20.60
2018-08-13T20:32:31.364Z,20.60
2018-08-13T20:34:59.539Z,20.60
2018-08-13T20:37:27.730Z,20.60
2018-08-13T20:39:56.385Z,20.60
2018-08-13T20:42:24.576Z,20.60
2018-08-13T20:44:52.738Z,20.60
2018-08-13T20:47:20.917Z,20.60
2018-08-13T20:49:49.516Z,20.50
2018-08-13T20:52:17.707Z,20.50
2018-08-13T20:54:45.915Z,20.50
2018-08-13T20:57:14.107Z,20.40
2018-08-13T20:59:42.300Z,20.50
2018-08-13T21:02:10.544Z,20.50
2018-08-13T21:04:38.730Z,20.50
2018-08-13T21:07:06.919Z,20.30
2018-08-13T21:09:35.084Z,20.40
2018-08-13T21:12:03.254Z,20.40
2018-08-13T21:14:31.430Z,20.40
2018-08-13T21:16:59.638Z,20.40
2018-08-13T21:19:27.854Z,20.30
2018-08-13T21:21:56.043Z,20.30
2018-08-13T21:24:24.220Z,20.30
2018-08-13T21:26:53.206Z,20.20
2018-08-13T21:29:21.371Z,20.20
2018-08-13T21:31:49.976Z,20.20
2018-08-13T21:34:18.192Z,20.20
2018-08-13T21:36:46.417Z,20.20
2018-08-13T21:39:14.596Z,20.20
2018-08-13T21:41:42.775Z,20.10
2018-08-13T21:44:10.934Z,20.10
2018-08-13T21:46:39.146Z,20.10
2018-08-13T21:49:07.317Z,20.10
2018-08-13T21:51:35.503Z,20.10
2018-08-13T21:54:03.671Z,20.10
2018-08-13T21:56:31.842Z,20.00
2018-08-13T21:59:00.027Z,20.10
2018-08-13T22:01:33.575Z,20.10
2018-08-13T22:04:01.740Z,20.20
2018-08-13T22:06:29.911Z,20.20
2018-08-13T22:08:58.081Z,20.20
2018-08-13T22:11:26.430Z,20.20
2018-08-13T22:13:54.700Z,20.20
2018-08-13T22:16:22.877Z,20.20
2018-08-13T22:18:51.068Z,20.20
2018-08-13T22:21:19.239Z,20.20
2018-08-13T22:25:01.011Z,20.20
2018-08-13T22:27:29.190Z,20.20
2018-08-13T22:29:57.782Z,20.00
2018-08-13T22:32:25.951Z,20.00
2018-08-13T22:34:54.365Z,19.90
2018-08-13T22:37:22.572Z,19.80
2018-08-13T22:39:50.776Z,19.90
2018-08-13T22:42:18.950Z,19.90
2018-08-13T22:44:47.118Z,19.90
2018-08-13T22:47:15.286Z,19.70
2018-08-13T22:49:43.763Z,19.70
2018-08-13T22:52:12.034Z,19.80
2018-08-13T22:54:40.103Z,19.80
2018-08-13T22:57:08.631Z,19.80
2018-08-13T22:59:36.789Z,19.80
2018-08-13T23:02:04.978Z,19.70
2018-08-13T23:04:33.452Z,19.60
2018-08-13T23:07:02.010Z,19.60
2018-08-13T23:09:30.178Z,19.60
2018-08-13T23:11:58.346Z,19.70
2018-08-13T23:14:26.565Z,19.70
2018-08-13T23:16:54.779Z,19.70
2018-08-13T23:19:22.947Z,19.80
2018-08-13T23:21:51.134Z,19.80
2018-08-13T23:24:19.365Z,19.80
2018-08-13T23:26:47.584Z,19.80
2018-08-13T23:29:15.771Z,19.70
2018-08-13T23:31:43.963Z,19.70
2018-08-13T23:34:12.143Z,19.70
2018-08-13T23:36:40.302Z,19.70
2018-08-13T23:39:10.931Z,19.70
2018-08-13T23:41:39.415Z,19.70
2018-08-13T23:44:08.054Z,19.70
2018-08-13T23:46:36.470Z,19.60
2018-08-13T23:49:04.642Z,19.70
2018-08-13T23:51:32.870Z,19.70
2018-08-13T23:54:01.063Z,19.60
2018-08-13T23:56:29.231Z,19.60
2018-08-13T23:58:57.444Z,19.50
